sensor_id;sensor_type;location;lat;lon;timestamp;P1;P2;P0
26720;PMS1003;15950;51.112;6.966;2024-02-16T00:01:59;000;000;
26720;PMS1003;15950;51.112;6.966;2024-02-16T00:04:58;000;000;
26720;PMS1003;15950;51.112;6.966;2024-02-16T00:07:58;000;000;
26720;PMS1003;15950;51.112;6.966;2024-02-16T00:10:58;000;000;
26720;PMS1003;15950;51.112;6.966;2024-02-16T00:13:58;000;000;
26720;PMS1003;15950;51.112;6.966;2024-02-16T00:16:58;000;000;
26720;PMS1003;15950;51.112;6.966;2024-02-16T00:19:58;000;000;
26720;PMS1003;15950;51.112;6.966;2024-02-16T00:22:58;000;000;
26720;PMS1003;15950;51.112;6.966;2024-02-16T00:25:58;000;000;
26720;PMS1003;15950;51.112;6.966;2024-02-16T00:28:58;000;000;
26720;PMS1003;15950;51.112;6.966;2024-02-16T00:31:58;000;000;
26720;PMS1003;15950;51.112;6.966;2024-02-16T00:34:58;000;000;
26720;PMS1003;15950;51.112;6.966;2024-02-16T00:37:59;000;000;
26720;PMS1003;15950;51.112;6.966;2024-02-16T00:40:58;000;000;
26720;PMS1003;15950;51.112;6.966;2024-02-16T00:43:58;000;000;
26720;PMS1003;15950;51.112;6.966;2024-02-16T00:46:58;001;001;
26720;PMS1003;15950;51.112;6.966;2024-02-16T00:49:58;000;000;
26720;PMS1003;15950;51.112;6.966;2024-02-16T00:52:58;000;000;
26720;PMS1003;15950;51.112;6.966;2024-02-16T00:55:58;000;000;
26720;PMS1003;15950;51.112;6.966;2024-02-16T00:58:58;002;001;
26720;PMS1003;15950;51.112;6.966;2024-02-16T01:01:58;000;000;
26720;PMS1003;15950;51.112;6.966;2024-02-16T01:04:58;000;000;
26720;PMS1003;15950;51.112;6.966;2024-02-16T01:07:58;000;000;
26720;PMS1003;15950;51.112;6.966;2024-02-16T01:10:58;000;000;
26720;PMS1003;15950;51.112;6.966;2024-02-16T01:13:58;000;000;
26720;PMS1003;15950;51.112;6.966;2024-02-16T01:16:58;000;000;
26720;PMS1003;15950;51.112;6.966;2024-02-16T01:19:58;000;000;
26720;PMS1003;15950;51.112;6.966;2024-02-16T01:22:58;000;000;
26720;PMS1003;15950;51.112;6.966;2024-02-16T01:25:58;000;000;
26720;PMS1003;15950;51.112;6.966;2024-02-16T01:28:58;001;001;
26720;PMS1003;15950;51.112;6.966;2024-02-16T01:31:58;002;001;
26720;PMS1003;15950;51.112;6.966;2024-02-16T01:34:58;000;000;
26720;PMS1003;15950;51.112;6.966;2024-02-16T01:37:58;000;000;
26720;PMS1003;15950;51.112;6.966;2024-02-16T01:40:58;000;000;
26720;PMS1003;15950;51.112;6.966;2024-02-16T01:43:58;000;000;
26720;PMS1003;15950;51.112;6.966;2024-02-16T01:46:58;000;000;
26720;PMS1003;15950;51.112;6.966;2024-02-16T01:49:58;000;000;
26720;PMS1003;15950;51.112;6.966;2024-02-16T01:52:58;000;000;
26720;PMS1003;15950;51.112;6.966;2024-02-16T01:55:58;000;000;
26720;PMS1003;15950;51.112;6.966;2024-02-16T01:58:58;000;000;
26720;PMS1003;15950;51.112;6.966;2024-02-16T02:01:59;000;000;
26720;PMS1003;15950;51.112;6.966;2024-02-16T02:04:58;000;000;
26720;PMS1003;15950;51.112;6.966;2024-02-16T02:07:58;000;000;
26720;PMS1003;15950;51.112;6.966;2024-02-16T02:10:58;000;000;
26720;PMS1003;15950;51.112;6.966;2024-02-16T02:13:58;000;000;
26720;PMS1003;15950;51.112;6.966;2024-02-16T02:16:58;000;000;
26720;PMS1003;15950;51.112;6.966;2024-02-16T02:19:58;001;001;
26720;PMS1003;15950;51.112;6.966;2024-02-16T02:22:58;000;000;
26720;PMS1003;15950;51.112;6.966;2024-02-16T02:25:58;000;000;
26720;PMS1003;15950;51.112;6.966;2024-02-16T02:28:58;000;000;
26720;PMS1003;15950;51.112;6.966;2024-02-16T02:31:58;000;000;
26720;PMS1003;15950;51.112;6.966;2024-02-16T02:34:58;000;000;
26720;PMS1003;15950;51.112;6.966;2024-02-16T02:37:58;000;000;
26720;PMS1003;15950;51.112;6.966;2024-02-16T02:40:58;000;000;
26720;PMS1003;15950;51.112;6.966;2024-02-16T02:43:58;000;000;
26720;PMS1003;15950;51.112;6.966;2024-02-16T02:46:58;000;000;
26720;PMS1003;15950;51.112;6.966;2024-02-16T02:49:58;000;000;
26720;PMS1003;15950;51.112;6.966;2024-02-16T02:52:58;000;000;
26720;PMS1003;15950;51.112;6.966;2024-02-16T02:55:58;000;000;
26720;PMS1003;15950;51.112;6.966;2024-02-16T02:58:58;000;000;
26720;PMS1003;15950;51.112;6.966;2024-02-16T03:01:58;000;000;
26720;PMS1003;15950;51.112;6.966;2024-02-16T03:04:58;000;000;
26720;PMS1003;15950;51.112;6.966;2024-02-16T03:07:58;000;000;
26720;PMS1003;15950;51.112;6.966;2024-02-16T03:10:58;000;000;
26720;PMS1003;15950;51.112;6.966;2024-02-16T03:13:58;000;000;
26720;PMS1003;15950;51.112;6.966;2024-02-16T03:16:58;000;000;
26720;PMS1003;15950;51.112;6.966;2024-02-16T03:19:58;000;000;
26720;PMS1003;15950;51.112;6.966;2024-02-16T03:22:58;000;000;
26720;PMS1003;15950;51.112;6.966;2024-02-16T03:25:58;000;000;
26720;PMS1003;15950;51.112;6.966;2024-02-16T03:28:58;000;000;
26720;PMS1003;15950;51.112;6.966;2024-02-16T03:31:58;000;000;
26720;PMS1003;15950;51.112;6.966;2024-02-16T03:34:58;000;000;
26720;PMS1003;15950;51.112;6.966;2024-02-16T03:37:58;000;000;
26720;PMS1003;15950;51.112;6.966;2024-02-16T03:40:58;000;000;
26720;PMS1003;15950;51.112;6.966;2024-02-16T03:43:58;000;000;
26720;PMS1003;15950;51.112;6.966;2024-02-16T03:46:58;000;000;
26720;PMS1003;15950;51.112;6.966;2024-02-16T03:49:58;000;000;
26720;PMS1003;15950;51.112;6.966;2024-02-16T03:52:58;000;000;
26720;PMS1003;15950;51.112;6.966;2024-02-16T03:55:58;000;000;
26720;PMS1003;15950;51.112;6.966;2024-02-16T03:58:58;000;000;
26720;PMS1003;15950;51.112;6.966;2024-02-16T04:01:58;000;000;
26720;PMS1003;15950;51.112;6.966;2024-02-16T04:04:58;000;000;
26720;PMS1003;15950;51.112;6.966;2024-02-16T04:07:58;000;000;
26720;PMS1003;15950;51.112;6.966;2024-02-16T04:10:58;000;000;
26720;PMS1003;15950;51.112;6.966;2024-02-16T04:13:58;002;001;
26720;PMS1003;15950;51.112;6.966;2024-02-16T04:16:58;000;000;
26720;PMS1003;15950;51.112;6.966;2024-02-16T04:19:58;001;001;
26720;PMS1003;15950;51.112;6.966;2024-02-16T04:22:58;000;000;
26720;PMS1003;15950;51.112;6.966;2024-02-16T04:25:58;000;000;
26720;PMS1003;15950;51.112;6.966;2024-02-16T04:28:58;000;000;
26720;PMS1003;15950;51.112;6.966;2024-02-16T04:31:58;000;000;
26720;PMS1003;15950;51.112;6.966;2024-02-16T04:34:58;000;000;
26720;PMS1003;15950;51.112;6.966;2024-02-16T04:37:58;000;000;
26720;PMS1003;15950;51.112;6.966;2024-02-16T04:40:58;000;000;
26720;PMS1003;15950;51.112;6.966;2024-02-16T04:43:58;000;000;
26720;PMS1003;15950;51.112;6.966;2024-02-16T04:46:58;000;000;
26720;PMS1003;15950;51.112;6.966;2024-02-16T04:49:58;000;000;
26720;PMS1003;15950;51.112;6.966;2024-02-16T04:52:58;000;000;
26720;PMS1003;15950;51.112;6.966;2024-02-16T04:56:00;000;000;
26720;PMS1003;15950;51.112;6.966;2024-02-16T04:58:58;000;000;
26720;PMS1003;15950;51.112;6.966;2024-02-16T05:01:58;000;000;
26720;PMS1003;15950;51.112;6.966;2024-02-16T05:04:58;000;000;
26720;PMS1003;15950;51.112;6.966;2024-02-16T05:07:58;000;000;
26720;PMS1003;15950;51.112;6.966;2024-02-16T05:10:59;000;000;
26720;PMS1003;15950;51.112;6.966;2024-02-16T05:13:58;000;000;
26720;PMS1003;15950;51.112;6.966;2024-02-16T05:16:58;001;001;
26720;PMS1003;15950;51.112;6.966;2024-02-16T05:19:58;000;000;
26720;PMS1003;15950;51.112;6.966;2024-02-16T05:22:58;000;000;
26720;PMS1003;15950;51.112;6.966;2024-02-16T05:25:58;000;000;
26720;PMS1003;15950;51.112;6.966;2024-02-16T05:28:58;000;000;
26720;PMS1003;15950;51.112;6.966;2024-02-16T05:31:58;000;000;
26720;PMS1003;15950;51.112;6.966;2024-02-16T05:34:58;001;001;
26720;PMS1003;15950;51.112;6.966;2024-02-16T05:37:58;000;000;
26720;PMS1003;15950;51.112;6.966;2024-02-16T05:40:58;000;000;
26720;PMS1003;15950;51.112;6.966;2024-02-16T05:43:58;000;000;
26720;PMS1003;15950;51.112;6.966;2024-02-16T05:46:58;000;000;
26720;PMS1003;15950;51.112;6.966;2024-02-16T05:49:58;000;000;
26720;PMS1003;15950;51.112;6.966;2024-02-16T05:52:58;000;000;
26720;PMS1003;15950;51.112;6.966;2024-02-16T05:55:58;000;000;
26720;PMS1003;15950;51.112;6.966;2024-02-16T05:58:58;002;001;
26720;PMS1003;15950;51.112;6.966;2024-02-16T06:01:58;000;000;
26720;PMS1003;15950;51.112;6.966;2024-02-16T06:05:01;000;000;
26720;PMS1003;15950;51.112;6.966;2024-02-16T06:07:58;000;000;
26720;PMS1003;15950;51.112;6.966;2024-02-16T06:10:58;003;002;
26720;PMS1003;15950;51.112;6.966;2024-02-16T06:13:58;000;000;
26720;PMS1003;15950;51.112;6.966;2024-02-16T06:16:58;001;001;
26720;PMS1003;15950;51.112;6.966;2024-02-16T06:19:58;001;001;
26720;PMS1003;15950;51.112;6.966;2024-02-16T06:22:58;000;000;
26720;PMS1003;15950;51.112;6.966;2024-02-16T06:25:58;000;000;
26720;PMS1003;15950;51.112;6.966;2024-02-16T06:28:58;000;000;
26720;PMS1003;15950;51.112;6.966;2024-02-16T06:31:58;000;000;
26720;PMS1003;15950;51.112;6.966;2024-02-16T06:34:58;000;000;
26720;PMS1003;15950;51.112;6.966;2024-02-16T06:37:58;000;000;
26720;PMS1003;15950;51.112;6.966;2024-02-16T06:40:58;000;000;
26720;PMS1003;15950;51.112;6.966;2024-02-16T06:43:58;001;001;
26720;PMS1003;15950;51.112;6.966;2024-02-16T06:46:58;000;000;
26720;PMS1003;15950;51.112;6.966;2024-02-16T06:49:58;000;000;
26720;PMS1003;15950;51.112;6.966;2024-02-16T06:52:58;000;000;
26720;PMS1003;15950;51.112;6.966;2024-02-16T06:55:58;001;001;
26720;PMS1003;15950;51.112;6.966;2024-02-16T06:58:58;000;000;
26720;PMS1003;15950;51.112;6.966;2024-02-16T07:01:58;000;000;
26720;PMS1003;15950;51.112;6.966;2024-02-16T07:04:58;000;000;
26720;PMS1003;15950;51.112;6.966;2024-02-16T07:07:58;000;000;
26720;PMS1003;15950;51.112;6.966;2024-02-16T07:10:58;000;000;
26720;PMS1003;15950;51.112;6.966;2024-02-16T07:13:58;000;000;
26720;PMS1003;15950;51.112;6.966;2024-02-16T07:16:58;000;000;
26720;PMS1003;15950;51.112;6.966;2024-02-16T07:19:58;000;000;
26720;PMS1003;15950;51.112;6.966;2024-02-16T07:22:58;000;000;
26720;PMS1003;15950;51.112;6.966;2024-02-16T07:25:58;000;000;
26720;PMS1003;15950;51.112;6.966;2024-02-16T07:28:58;000;000;
26720;PMS1003;15950;51.112;6.966;2024-02-16T07:31:58;000;000;
26720;PMS1003;15950;51.112;6.966;2024-02-16T07:34:59;000;000;
26720;PMS1003;15950;51.112;6.966;2024-02-16T07:37:58;002;001;
26720;PMS1003;15950;51.112;6.966;2024-02-16T07:40:58;000;000;
26720;PMS1003;15950;51.112;6.966;2024-02-16T07:43:58;000;000;
26720;PMS1003;15950;51.112;6.966;2024-02-16T07:46:58;000;000;
26720;PMS1003;15950;51.112;6.966;2024-02-16T07:49:58;000;000;
26720;PMS1003;15950;51.112;6.966;2024-02-16T07:52:58;000;000;
26720;PMS1003;15950;51.112;6.966;2024-02-16T07:55:58;000;000;
26720;PMS1003;15950;51.112;6.966;2024-02-16T07:58:58;002;001;
26720;PMS1003;15950;51.112;6.966;2024-02-16T08:01:58;001;001;
26720;PMS1003;15950;51.112;6.966;2024-02-16T08:04:58;001;001;
26720;PMS1003;15950;51.112;6.966;2024-02-16T08:07:58;000;000;
26720;PMS1003;15950;51.112;6.966;2024-02-16T08:10:58;003;002;
26720;PMS1003;15950;51.112;6.966;2024-02-16T08:13:58;000;000;
26720;PMS1003;15950;51.112;6.966;2024-02-16T08:16:58;000;000;
26720;PMS1003;15950;51.112;6.966;2024-02-16T08:19:58;000;000;
26720;PMS1003;15950;51.112;6.966;2024-02-16T08:22:58;000;000;
26720;PMS1003;15950;51.112;6.966;2024-02-16T08:25:58;002;001;
26720;PMS1003;15950;51.112;6.966;2024-02-16T08:29:01;000;000;
26720;PMS1003;15950;51.112;6.966;2024-02-16T08:31:58;000;000;
26720;PMS1003;15950;51.112;6.966;2024-02-16T08:34:58;000;000;
26720;PMS1003;15950;51.112;6.966;2024-02-16T08:37:58;000;000;
26720;PMS1003;15950;51.112;6.966;2024-02-16T08:40:58;000;000;
26720;PMS1003;15950;51.112;6.966;2024-02-16T08:43:58;000;000;
26720;PMS1003;15950;51.112;6.966;2024-02-16T08:46:58;001;001;
26720;PMS1003;15950;51.112;6.966;2024-02-16T08:49:58;000;000;
26720;PMS1003;15950;51.112;6.966;2024-02-16T08:52:58;000;000;
26720;PMS1003;15950;51.112;6.966;2024-02-16T08:55:58;000;000;
26720;PMS1003;15950;51.112;6.966;2024-02-16T08:58:58;000;000;
26720;PMS1003;15950;51.112;6.966;2024-02-16T09:01:58;000;000;
26720;PMS1003;15950;51.112;6.966;2024-02-16T09:04:58;000;000;
26720;PMS1003;15950;51.112;6.966;2024-02-16T09:07:58;000;000;
26720;PMS1003;15950;51.112;6.966;2024-02-16T09:10:58;000;000;
26720;PMS1003;15950;51.112;6.966;2024-02-16T09:13:58;000;000;
26720;PMS1003;15950;51.112;6.966;2024-02-16T09:16:58;000;000;
26720;PMS1003;15950;51.112;6.966;2024-02-16T09:19:58;001;001;
26720;PMS1003;15950;51.112;6.966;2024-02-16T09:22:58;000;000;
26720;PMS1003;15950;51.112;6.966;2024-02-16T09:25:58;000;000;
26720;PMS1003;15950;51.112;6.966;2024-02-16T09:28:58;002;002;
26720;PMS1003;15950;51.112;6.966;2024-02-16T09:31:58;001;001;
26720;PMS1003;15950;51.112;6.966;2024-02-16T09:34:58;000;000;
26720;PMS1003;15950;51.112;6.966;2024-02-16T09:37:58;003;002;
26720;PMS1003;15950;51.112;6.966;2024-02-16T09:40:58;001;001;
26720;PMS1003;15950;51.112;6.966;2024-02-16T09:43:58;000;000;
26720;PMS1003;15950;51.112;6.966;2024-02-16T09:46:58;000;000;
26720;PMS1003;15950;51.112;6.966;2024-02-16T09:49:58;000;000;
26720;PMS1003;15950;51.112;6.966;2024-02-16T09:52:58;000;000;
26720;PMS1003;15950;51.112;6.966;2024-02-16T09:55:58;000;000;
26720;PMS1003;15950;51.112;6.966;2024-02-16T09:58:58;001;001;
26720;PMS1003;15950;51.112;6.966;2024-02-16T10:02:01;000;000;
26720;PMS1003;15950;51.112;6.966;2024-02-16T10:04:58;000;000;
26720;PMS1003;15950;51.112;6.966;2024-02-16T10:07:58;000;000;
26720;PMS1003;15950;51.112;6.966;2024-02-16T10:11:04;001;001;
26720;PMS1003;15950;51.112;6.966;2024-02-16T10:13:59;000;000;
26720;PMS1003;15950;51.112;6.966;2024-02-16T10:17:01;000;000;
26720;PMS1003;15950;51.112;6.966;2024-02-16T10:19:58;000;000;
26720;PMS1003;15950;51.112;6.966;2024-02-16T10:25:58;003;002;
26720;PMS1003;15950;51.112;6.966;2024-02-16T10:28:58;000;000;
26720;PMS1003;15950;51.112;6.966;2024-02-16T10:31:58;000;000;
26720;PMS1003;15950;51.112;6.966;2024-02-16T10:34:58;002;001;
26720;PMS1003;15950;51.112;6.966;2024-02-16T10:37:58;000;000;
26720;PMS1003;15950;51.112;6.966;2024-02-16T10:40:58;000;000;
26720;PMS1003;15950;51.112;6.966;2024-02-16T10:43:58;000;000;
26720;PMS1003;15950;51.112;6.966;2024-02-16T10:46:58;000;000;
26720;PMS1003;15950;51.112;6.966;2024-02-16T10:49:58;000;000;
26720;PMS1003;15950;51.112;6.966;2024-02-16T10:52:58;001;001;
26720;PMS1003;15950;51.112;6.966;2024-02-16T10:55:58;002;001;
26720;PMS1003;15950;51.112;6.966;2024-02-16T11:02:01;000;000;
26720;PMS1003;15950;51.112;6.966;2024-02-16T11:04:58;000;000;
26720;PMS1003;15950;51.112;6.966;2024-02-16T11:10:59;000;000;
26720;PMS1003;15950;51.112;6.966;2024-02-16T11:13:58;002;002;
26720;PMS1003;15950;51.112;6.966;2024-02-16T11:16:58;001;001;
26720;PMS1003;15950;51.112;6.966;2024-02-16T11:19:59;000;000;
26720;PMS1003;15950;51.112;6.966;2024-02-16T11:25:59;000;000;
26720;PMS1003;15950;51.112;6.966;2024-02-16T11:28:58;000;000;
26720;PMS1003;15950;51.112;6.966;2024-02-16T11:31:58;019;013;
26720;PMS1003;15950;51.112;6.966;2024-02-16T11:35:04;005;003;
26720;PMS1003;15950;51.112;6.966;2024-02-16T11:37:58;005;003;
26720;PMS1003;15950;51.112;6.966;2024-02-16T11:44:00;002;001;
26720;PMS1003;15950;51.112;6.966;2024-02-16T11:46:58;001;001;
26720;PMS1003;15950;51.112;6.966;2024-02-16T11:52:58;003;002;
26720;PMS1003;15950;51.112;6.966;2024-02-16T11:55:58;000;000;
26720;PMS1003;15950;51.112;6.966;2024-02-16T11:58:58;002;001;
26720;PMS1003;15950;51.112;6.966;2024-02-16T12:01:58;001;001;
26720;PMS1003;15950;51.112;6.966;2024-02-16T12:04:58;002;001;
26720;PMS1003;15950;51.112;6.966;2024-02-16T12:07:58;002;001;
26720;PMS1003;15950;51.112;6.966;2024-02-16T12:10:58;003;003;
26720;PMS1003;15950;51.112;6.966;2024-02-16T12:13:58;000;000;
26720;PMS1003;15950;51.112;6.966;2024-02-16T12:16:58;000;000;
26720;PMS1003;15950;51.112;6.966;2024-02-16T12:19:58;002;001;
26720;PMS1003;15950;51.112;6.966;2024-02-16T12:22:58;005;004;
26720;PMS1003;15950;51.112;6.966;2024-02-16T12:25:58;002;002;
26720;PMS1003;15950;51.112;6.966;2024-02-16T12:28:58;002;001;
26720;PMS1003;15950;51.112;6.966;2024-02-16T12:31:58;002;001;
26720;PMS1003;15950;51.112;6.966;2024-02-16T12:34:58;004;003;
26720;PMS1003;15950;51.112;6.966;2024-02-16T12:37:58;002;001;
26720;PMS1003;15950;51.112;6.966;2024-02-16T12:40:58;005;003;
26720;PMS1003;15950;51.112;6.966;2024-02-16T12:43:58;002;001;
26720;PMS1003;15950;51.112;6.966;2024-02-16T12:46:58;000;000;
26720;PMS1003;15950;51.112;6.966;2024-02-16T12:49:58;004;003;
26720;PMS1003;15950;51.112;6.966;2024-02-16T12:52:58;003;003;
26720;PMS1003;15950;51.112;6.966;2024-02-16T12:55:58;003;003;
26720;PMS1003;15950;51.112;6.966;2024-02-16T12:58:58;001;001;
26720;PMS1003;15950;51.112;6.966;2024-02-16T13:01:58;002;001;
26720;PMS1003;15950;51.112;6.966;2024-02-16T13:04:58;006;004;
26720;PMS1003;15950;51.112;6.966;2024-02-16T13:07:58;002;001;
26720;PMS1003;15950;51.112;6.966;2024-02-16T13:10:58;007;005;
26720;PMS1003;15950;51.112;6.966;2024-02-16T13:13:58;004;003;
26720;PMS1003;15950;51.112;6.966;2024-02-16T13:20:35;006;004;
26720;PMS1003;15950;51.112;6.966;2024-02-16T13:23:35;005;005;
26720;PMS1003;15950;51.112;6.966;2024-02-16T13:26:35;003;002;
26720;PMS1003;15950;51.112;6.966;2024-02-16T13:29:35;003;002;
26720;PMS1003;15950;51.112;6.966;2024-02-16T13:32:35;003;002;
26720;PMS1003;15950;51.112;6.966;2024-02-16T13:35:35;007;005;
26720;PMS1003;15950;51.112;6.966;2024-02-16T13:38:35;003;002;
26720;PMS1003;15950;51.112;6.966;2024-02-16T13:41:35;006;004;
26720;PMS1003;15950;51.112;6.966;2024-02-16T13:44:35;007;005;
26720;PMS1003;15950;51.112;6.966;2024-02-16T13:47:35;009;007;
26720;PMS1003;15950;51.112;6.966;2024-02-16T13:50:35;006;004;
26720;PMS1003;15950;51.112;6.966;2024-02-16T13:53:35;005;004;
26720;PMS1003;15950;51.112;6.966;2024-02-16T13:56:35;004;003;
26720;PMS1003;15950;51.112;6.966;2024-02-16T13:59:35;005;003;
26720;PMS1003;15950;51.112;6.966;2024-02-16T14:02:35;006;004;
26720;PMS1003;15950;51.112;6.966;2024-02-16T14:05:38;005;003;
26720;PMS1003;15950;51.112;6.966;2024-02-16T14:08:35;007;005;
26720;PMS1003;15950;51.112;6.966;2024-02-16T14:11:35;006;005;
26720;PMS1003;15950;51.112;6.966;2024-02-16T14:14:35;005;004;
26720;PMS1003;15950;51.112;6.966;2024-02-16T14:17:35;006;004;
26720;PMS1003;15950;51.112;6.966;2024-02-16T14:20:35;005;004;
26720;PMS1003;15950;51.112;6.966;2024-02-16T14:23:35;007;005;
26720;PMS1003;15950;51.112;6.966;2024-02-16T14:26:35;009;006;
26720;PMS1003;15950;51.112;6.966;2024-02-16T14:29:35;005;003;
26720;PMS1003;15950;51.112;6.966;2024-02-16T14:32:35;006;004;
26720;PMS1003;15950;51.112;6.966;2024-02-16T14:35:35;006;005;
26720;PMS1003;15950;51.112;6.966;2024-02-16T14:38:35;003;002;
26720;PMS1003;15950;51.112;6.966;2024-02-16T14:41:35;006;004;
26720;PMS1003;15950;51.112;6.966;2024-02-16T14:44:35;003;002;
26720;PMS1003;15950;51.112;6.966;2024-02-16T14:47:36;005;003;
26720;PMS1003;15950;51.112;6.966;2024-02-16T14:50:35;005;003;
26720;PMS1003;15950;51.112;6.966;2024-02-16T14:53:35;003;002;
26720;PMS1003;15950;51.112;6.966;2024-02-16T14:56:35;008;007;
26720;PMS1003;15950;51.112;6.966;2024-02-16T14:59:35;007;005;
26720;PMS1003;15950;51.112;6.966;2024-02-16T15:02:35;009;006;
26720;PMS1003;15950;51.112;6.966;2024-02-16T15:05:35;005;004;
26720;PMS1003;15950;51.112;6.966;2024-02-16T15:08:35;009;006;
26720;PMS1003;15950;51.112;6.966;2024-02-16T15:11:35;003;003;
26720;PMS1003;15950;51.112;6.966;2024-02-16T15:14:35;007;005;
26720;PMS1003;15950;51.112;6.966;2024-02-16T15:17:35;004;003;
26720;PMS1003;15950;51.112;6.966;2024-02-16T15:20:35;009;006;
26720;PMS1003;15950;51.112;6.966;2024-02-16T15:23:35;007;005;
26720;PMS1003;15950;51.112;6.966;2024-02-16T15:26:35;006;004;
26720;PMS1003;15950;51.112;6.966;2024-02-16T15:29:35;006;004;
26720;PMS1003;15950;51.112;6.966;2024-02-16T15:32:35;003;002;
26720;PMS1003;15950;51.112;6.966;2024-02-16T15:35:35;009;006;
26720;PMS1003;15950;51.112;6.966;2024-02-16T15:38:35;006;004;
26720;PMS1003;15950;51.112;6.966;2024-02-16T15:41:35;003;002;
26720;PMS1003;15950;51.112;6.966;2024-02-16T15:44:35;005;003;
26720;PMS1003;15950;51.112;6.966;2024-02-16T15:47:35;003;002;
26720;PMS1003;15950;51.112;6.966;2024-02-16T15:50:36;003;002;
26720;PMS1003;15950;51.112;6.966;2024-02-16T15:53:35;003;002;
26720;PMS1003;15950;51.112;6.966;2024-02-16T15:56:35;002;002;
26720;PMS1003;15950;51.112;6.966;2024-02-16T15:59:35;001;001;
26720;PMS1003;15950;51.112;6.966;2024-02-16T16:02:35;001;001;
26720;PMS1003;15950;51.112;6.966;2024-02-16T16:05:35;002;001;
26720;PMS1003;15950;51.112;6.966;2024-02-16T16:08:35;001;001;
26720;PMS1003;15950;51.112;6.966;2024-02-16T16:11:35;000;000;
26720;PMS1003;15950;51.112;6.966;2024-02-16T16:14:38;000;000;
26720;PMS1003;15950;51.112;6.966;2024-02-16T16:17:36;000;000;
26720;PMS1003;15950;51.112;6.966;2024-02-16T16:20:35;000;000;
26720;PMS1003;15950;51.112;6.966;2024-02-16T16:23:38;003;002;
26720;PMS1003;15950;51.112;6.966;2024-02-16T16:26:38;003;002;
26720;PMS1003;15950;51.112;6.966;2024-02-16T16:29:35;002;001;
26720;PMS1003;15950;51.112;6.966;2024-02-16T16:32:35;003;002;
26720;PMS1003;15950;51.112;6.966;2024-02-16T16:35:38;000;000;
26720;PMS1003;15950;51.112;6.966;2024-02-16T16:38:35;002;002;
26720;PMS1003;15950;51.112;6.966;2024-02-16T16:41:35;002;002;
26720;PMS1003;15950;51.112;6.966;2024-02-16T16:44:35;003;002;
26720;PMS1003;15950;51.112;6.966;2024-02-16T16:47:35;001;001;
26720;PMS1003;15950;51.112;6.966;2024-02-16T16:50:35;002;001;
26720;PMS1003;15950;51.112;6.966;2024-02-16T16:53:35;003;002;
26720;PMS1003;15950;51.112;6.966;2024-02-16T16:56:35;005;003;
26720;PMS1003;15950;51.112;6.966;2024-02-16T16:59:35;002;001;
26720;PMS1003;15950;51.112;6.966;2024-02-16T17:02:35;003;003;
26720;PMS1003;15950;51.112;6.966;2024-02-16T17:05:35;003;002;
26720;PMS1003;15950;51.112;6.966;2024-02-16T17:08:35;003;002;
26720;PMS1003;15950;51.112;6.966;2024-02-16T17:11:35;002;002;
26720;PMS1003;15950;51.112;6.966;2024-02-16T17:14:35;005;003;
26720;PMS1003;15950;51.112;6.966;2024-02-16T17:17:35;003;002;
26720;PMS1003;15950;51.112;6.966;2024-02-16T17:20:35;005;003;
26720;PMS1003;15950;51.112;6.966;2024-02-16T17:23:35;008;006;
26720;PMS1003;15950;51.112;6.966;2024-02-16T17:26:35;005;003;
26720;PMS1003;15950;51.112;6.966;2024-02-16T17:29:36;005;004;
26720;PMS1003;15950;51.112;6.966;2024-02-16T17:32:35;005;004;
26720;PMS1003;15950;51.112;6.966;2024-02-16T17:35:35;005;003;
26720;PMS1003;15950;51.112;6.966;2024-02-16T17:38:35;006;004;
26720;PMS1003;15950;51.112;6.966;2024-02-16T17:41:35;005;003;
26720;PMS1003;15950;51.112;6.966;2024-02-16T17:44:35;004;003;
26720;PMS1003;15950;51.112;6.966;2024-02-16T17:47:35;007;005;
26720;PMS1003;15950;51.112;6.966;2024-02-16T17:50:35;004;003;
26720;PMS1003;15950;51.112;6.966;2024-02-16T17:53:35;008;006;
26720;PMS1003;15950;51.112;6.966;2024-02-16T17:56:35;006;004;
26720;PMS1003;15950;51.112;6.966;2024-02-16T17:59:35;003;002;
26720;PMS1003;15950;51.112;6.966;2024-02-16T18:02:35;008;008;
26720;PMS1003;15950;51.112;6.966;2024-02-16T18:05:35;005;004;
26720;PMS1003;15950;51.112;6.966;2024-02-16T18:08:35;006;004;
26720;PMS1003;15950;51.112;6.966;2024-02-16T18:11:35;006;004;
26720;PMS1003;15950;51.112;6.966;2024-02-16T18:14:35;006;004;
26720;PMS1003;15950;51.112;6.966;2024-02-16T18:17:35;008;007;
26720;PMS1003;15950;51.112;6.966;2024-02-16T18:20:35;007;005;
26720;PMS1003;15950;51.112;6.966;2024-02-16T18:23:35;007;005;
26720;PMS1003;15950;51.112;6.966;2024-02-16T18:26:35;012;008;
26720;PMS1003;15950;51.112;6.966;2024-02-16T18:29:35;013;011;
26720;PMS1003;15950;51.112;6.966;2024-02-16T18:32:35;012;009;
26720;PMS1003;15950;51.112;6.966;2024-02-16T18:35:35;012;009;
26720;PMS1003;15950;51.112;6.966;2024-02-16T18:38:35;016;011;
26720;PMS1003;15950;51.112;6.966;2024-02-16T18:41:35;016;011;
26720;PMS1003;15950;51.112;6.966;2024-02-16T18:44:35;016;011;
26720;PMS1003;15950;51.112;6.966;2024-02-16T18:47:35;016;011;
26720;PMS1003;15950;51.112;6.966;2024-02-16T18:50:35;014;010;
26720;PMS1003;15950;51.112;6.966;2024-02-16T18:53:35;016;011;
26720;PMS1003;15950;51.112;6.966;2024-02-16T18:56:35;017;012;
26720;PMS1003;15950;51.112;6.966;2024-02-16T18:59:35;016;012;
26720;PMS1003;15950;51.112;6.966;2024-02-16T19:02:35;013;010;
26720;PMS1003;15950;51.112;6.966;2024-02-16T19:05:35;016;011;
26720;PMS1003;15950;51.112;6.966;2024-02-16T19:08:35;012;012;
26720;PMS1003;15950;51.112;6.966;2024-02-16T19:11:35;014;010;
26720;PMS1003;15950;51.112;6.966;2024-02-16T19:14:35;013;010;
26720;PMS1003;15950;51.112;6.966;2024-02-16T19:17:35;015;012;
26720;PMS1003;15950;51.112;6.966;2024-02-16T19:20:35;011;010;
26720;PMS1003;15950;51.112;6.966;2024-02-16T19:23:35;014;010;
26720;PMS1003;15950;51.112;6.966;2024-02-16T19:26:35;014;010;
26720;PMS1003;15950;51.112;6.966;2024-02-16T19:29:35;013;010;
26720;PMS1003;15950;51.112;6.966;2024-02-16T19:32:35;014;012;
26720;PMS1003;15950;51.112;6.966;2024-02-16T19:35:35;013;009;
26720;PMS1003;15950;51.112;6.966;2024-02-16T19:38:35;016;013;